Fort Saint John, Canada
Current Conditions -  °F | °C
As of 11:00 AM on Thursday 30 Oct 2014 (Local Time) from CYXJ Reporting Station
Moderate Fog Moderate Fog  
Wind Chill: -6°   Ceiling: 100
Heat Index: -1°   Visibility: 0.12mi
Dew Point: -1°   Wind: 9mph
Humidity: 100%   Direction: 120°ESE
Pressure: 29.93"   Gusts: NA
Location:  56.25°N, 120.85°W
Report Text: CYXJ 301700Z 12008KT 1/8SM R29/0700FT/N FZFG VV001 M01/M01 A2993 RMK FG8 SLP171
Loading
Personal Weather Stations






























Interactive Weather Map
Tropical Storm Tracking
New forecast layout! Learn more

10-Day Weather Forecast

Advertisements
Track Severe Weather on mobile